createdAt,value
2022-12-03T00:00:12.844Z,2.92
2022-12-03T00:02:41.677Z,3.00
2022-12-03T00:05:10.463Z,2.99
2022-12-03T00:07:38.388Z,3.02
2022-12-03T00:10:07.209Z,3.00
2022-12-03T00:12:35.211Z,2.87
2022-12-03T00:15:04.061Z,2.71
2022-12-03T00:17:33.410Z,2.75
2022-12-03T00:20:01.419Z,2.90
2022-12-03T00:22:29.366Z,2.99
2022-12-03T00:24:57.244Z,2.93
2022-12-03T00:27:25.142Z,2.98
2022-12-03T00:29:53.041Z,2.81
2022-12-03T00:32:21.036Z,2.79
2022-12-03T00:34:48.878Z,2.98
2022-12-03T00:37:17.044Z,2.73
2022-12-03T00:39:44.946Z,2.90
2022-12-03T00:42:12.838Z,3.00
2022-12-03T00:44:41.029Z,2.77
2022-12-03T00:47:10.906Z,3.08
2022-12-03T00:49:38.937Z,2.77
2022-12-03T00:52:06.869Z,3.00
2022-12-03T00:54:34.756Z,3.05
2022-12-03T00:57:02.710Z,2.94
2022-12-03T00:59:30.665Z,2.90
2022-12-03T01:01:58.620Z,2.96
2022-12-03T01:04:26.725Z,2.61
2022-12-03T01:06:54.636Z,2.86
2022-12-03T01:09:22.546Z,2.90
2022-12-03T01:11:50.480Z,3.00
2022-12-03T01:14:20.003Z,2.95
2022-12-03T01:16:48.567Z,2.99
2022-12-03T01:19:18.070Z,2.97
2022-12-03T01:21:49.235Z,2.93
2022-12-03T01:24:18.935Z,2.82
2022-12-03T01:26:47.170Z,2.98
2022-12-03T01:29:15.174Z,2.92
2022-12-03T01:32:04.392Z,3.01
2022-12-03T01:34:32.581Z,2.91
2022-12-03T01:37:00.446Z,3.00
2022-12-03T01:39:28.349Z,2.99
2022-12-03T01:41:58.799Z,3.01
2022-12-03T01:44:32.054Z,2.96
2022-12-03T01:47:04.552Z,3.10
2022-12-03T01:49:47.178Z,2.95
2022-12-03T01:52:21.603Z,2.99
2022-12-03T01:54:56.630Z,2.94
2022-12-03T01:57:35.499Z,3.01
2022-12-03T02:00:04.441Z,2.76
2022-12-03T02:02:33.354Z,2.86
2022-12-03T02:05:01.985Z,2.92
2022-12-03T02:07:32.628Z,2.81
2022-12-03T02:10:03.929Z,2.86
2022-12-03T02:12:39.847Z,2.67
2022-12-03T02:15:09.911Z,2.58
2022-12-03T02:17:38.305Z,2.65
2022-12-03T02:20:09.108Z,2.66
2022-12-03T02:22:39.972Z,2.58
2022-12-03T02:25:18.780Z,2.48
2022-12-03T02:27:48.653Z,2.39
2022-12-03T02:30:20.310Z,2.45
2022-12-03T02:32:49.906Z,2.64
2022-12-03T02:35:20.480Z,2.47
2022-12-03T02:37:53.109Z,2.63
2022-12-03T02:40:25.546Z,2.59
2022-12-03T02:42:58.102Z,2.58
2022-12-03T02:45:31.166Z,2.60
2022-12-03T02:48:05.009Z,2.54
2022-12-03T02:50:36.483Z,2.47
2022-12-03T02:53:09.237Z,2.51
2022-12-03T02:55:37.761Z,2.57
2022-12-03T02:58:07.235Z,2.39
2022-12-03T03:00:37.255Z,2.46
2022-12-03T03:03:08.037Z,2.47
2022-12-03T03:05:39.042Z,2.69
2022-12-03T03:08:09.366Z,2.63
2022-12-03T03:10:39.918Z,2.71
2022-12-03T03:13:11.659Z,2.60
2022-12-03T03:15:41.042Z,2.46
2022-12-03T03:18:11.021Z,2.38
2022-12-03T03:20:40.172Z,2.47
2022-12-03T03:23:10.700Z,2.48
2022-12-03T03:25:41.892Z,2.35
2022-12-03T03:28:10.182Z,2.57
2022-12-03T03:30:39.484Z,2.47
2022-12-03T03:33:07.576Z,2.48
2022-12-03T03:35:36.786Z,2.48
2022-12-03T03:38:05.809Z,2.60
2022-12-03T03:40:34.049Z,2.51
2022-12-03T03:43:02.153Z,2.53
2022-12-03T03:45:30.153Z,2.63
2022-12-03T03:48:00.005Z,2.56
2022-12-03T03:50:31.295Z,2.62
2022-12-03T03:53:01.436Z,2.30
2022-12-03T03:55:30.551Z,2.51
2022-12-03T03:57:59.068Z,2.61
2022-12-03T04:00:27.250Z,2.47
2022-12-03T04:02:55.135Z,2.72
2022-12-03T04:05:24.249Z,2.70
2022-12-03T04:07:52.379Z,2.75
2022-12-03T04:10:39.217Z,2.84
2022-12-03T04:13:07.105Z,2.66
2022-12-03T04:15:35.038Z,2.59
2022-12-03T04:18:21.363Z,2.58
2022-12-03T04:20:49.832Z,2.47
2022-12-03T04:23:17.697Z,2.59
2022-12-03T04:26:03.955Z,2.69
2022-12-03T04:28:50.160Z,2.78
2022-12-03T04:31:36.217Z,2.59
2022-12-03T04:34:22.890Z,2.39
2022-12-03T04:36:50.752Z,2.39
2022-12-03T04:39:18.663Z,2.53
2022-12-03T04:41:46.578Z,2.70
2022-12-03T04:44:32.857Z,2.24
2022-12-03T04:47:27.843Z,2.44
2022-12-03T04:49:56.073Z,2.75
2022-12-03T04:52:24.336Z,2.79
2022-12-03T04:54:52.856Z,2.72
2022-12-03T04:57:20.899Z,2.75
2022-12-03T04:59:48.801Z,2.77
2022-12-03T05:02:16.809Z,2.87
2022-12-03T05:04:44.909Z,2.67
2022-12-03T05:07:12.791Z,2.72
2022-12-03T05:09:40.675Z,2.70
2022-12-03T05:12:08.692Z,2.67
2022-12-03T05:14:36.671Z,2.74
2022-12-03T05:17:04.748Z,2.79
2022-12-03T05:19:51.198Z,2.69
2022-12-03T05:22:19.118Z,2.46
2022-12-03T05:24:47.022Z,2.58
2022-12-03T05:27:18.787Z,2.76
2022-12-03T05:29:50.073Z,2.83
2022-12-03T05:32:18.045Z,2.78
2022-12-03T05:34:45.941Z,2.76
2022-12-03T05:37:13.815Z,2.48
2022-12-03T05:39:41.771Z,2.69
2022-12-03T05:42:29.449Z,2.77
2022-12-03T05:44:57.384Z,2.77
2022-12-03T05:47:25.293Z,2.63
2022-12-03T05:49:53.485Z,2.76
2022-12-03T05:52:21.755Z,2.82
2022-12-03T05:54:51.247Z,2.85
2022-12-03T05:57:19.253Z,2.70
2022-12-03T05:59:47.128Z,2.73
2022-12-03T06:02:15.111Z,2.74
2022-12-03T06:04:43.150Z,2.76
2022-12-03T06:07:13.986Z,2.83
2022-12-03T06:09:42.300Z,2.88
2022-12-03T06:12:10.241Z,2.69
2022-12-03T06:14:38.171Z,2.84
2022-12-03T06:17:06.096Z,2.90
2022-12-03T06:19:34.760Z,2.93
2022-12-03T06:22:02.612Z,2.67
2022-12-03T06:24:30.698Z,2.80
2022-12-03T06:26:58.591Z,2.89
2022-12-03T06:29:35.884Z,2.64
2022-12-03T06:32:04.874Z,2.66
2022-12-03T06:34:32.761Z,2.85
2022-12-03T06:37:01.263Z,2.67
2022-12-03T06:39:29.147Z,2.73
2022-12-03T06:41:57.061Z,2.71
2022-12-03T06:44:25.090Z,2.84
2022-12-03T06:46:53.130Z,2.60
2022-12-03T06:49:21.106Z,2.71
2022-12-03T06:51:49.021Z,2.86
2022-12-03T06:54:16.872Z,2.85
2022-12-03T06:56:45.812Z,2.82
2022-12-03T06:59:13.974Z,2.57
2022-12-03T07:01:41.897Z,2.82
2022-12-03T07:04:10.062Z,2.79
2022-12-03T07:06:37.959Z,2.92
2022-12-03T07:09:05.880Z,2.88
2022-12-03T07:11:39.962Z,2.68
2022-12-03T07:14:11.050Z,2.74
2022-12-03T07:16:40.077Z,2.94
2022-12-03T07:19:08.060Z,2.87
2022-12-03T07:21:36.105Z,2.90
2022-12-03T07:24:04.147Z,3.01
2022-12-03T07:26:32.340Z,2.86
2022-12-03T07:29:00.319Z,2.96
2022-12-03T07:31:28.388Z,2.90
2022-12-03T07:33:56.281Z,2.86
2022-12-03T07:36:24.205Z,2.71
2022-12-03T07:38:52.096Z,2.97
2022-12-03T07:41:19.997Z,3.05
2022-12-03T07:43:47.879Z,2.91
2022-12-03T07:46:15.987Z,2.36
2022-12-03T07:48:43.885Z,2.98
2022-12-03T07:51:15.138Z,3.06
2022-12-03T07:53:43.842Z,3.02
2022-12-03T07:56:11.762Z,2.92
2022-12-03T07:58:40.765Z,3.02
2022-12-03T08:01:10.490Z,3.14
2022-12-03T08:03:38.645Z,3.21
2022-12-03T08:06:06.793Z,3.24
2022-12-03T08:08:34.818Z,3.10
2022-12-03T08:11:03.003Z,3.28
2022-12-03T08:13:33.871Z,3.15
2022-12-03T08:16:18.780Z,3.29
2022-12-03T08:18:48.269Z,3.34
2022-12-03T08:21:19.397Z,3.20
2022-12-03T08:23:47.534Z,3.17
2022-12-03T08:26:30.557Z,3.06
2022-12-03T08:28:58.417Z,3.12
2022-12-03T08:31:32.740Z,3.08
2022-12-03T08:34:23.246Z,2.98
2022-12-03T08:36:57.259Z,3.21
2022-12-03T08:39:37.926Z,3.06
2022-12-03T08:42:27.229Z,3.14
2022-12-03T08:44:55.772Z,3.07
2022-12-03T08:47:25.196Z,3.34
2022-12-03T08:49:59.880Z,3.28
2022-12-03T08:52:32.713Z,3.37
2022-12-03T08:55:22.589Z,3.28
2022-12-03T08:57:50.608Z,3.36
2022-12-03T09:00:24.476Z,3.40
2022-12-03T09:02:55.150Z,3.32
2022-12-03T09:05:30.782Z,3.29
2022-12-03T09:08:00.563Z,3.24
2022-12-03T09:10:28.504Z,3.29
2022-12-03T09:12:56.667Z,3.34
2022-12-03T09:15:24.527Z,3.37
2022-12-03T09:17:52.445Z,3.41
2022-12-03T09:20:20.309Z,3.44
2022-12-03T09:22:48.217Z,3.47
2022-12-03T09:25:17.024Z,3.25
2022-12-03T09:27:45.911Z,3.43
2022-12-03T09:30:14.054Z,3.42
2022-12-03T09:32:42.135Z,3.40
2022-12-03T09:35:10.386Z,3.64
2022-12-03T09:37:38.405Z,3.40
2022-12-03T09:40:07.660Z,3.42
2022-12-03T09:42:36.233Z,3.59
2022-12-03T09:45:10.754Z,3.50
2022-12-03T09:47:41.831Z,3.50
2022-12-03T09:50:20.819Z,3.65
2022-12-03T09:52:50.996Z,3.72
2022-12-03T09:55:23.231Z,3.46
2022-12-03T09:57:53.050Z,3.57
2022-12-03T10:00:27.647Z,3.77
2022-12-03T10:02:59.567Z,3.42
2022-12-03T10:05:28.927Z,3.66
2022-12-03T10:08:07.565Z,3.63
2022-12-03T10:10:37.633Z,3.75
2022-12-03T10:13:07.675Z,3.82
2022-12-03T10:15:35.552Z,3.76
2022-12-03T10:18:17.572Z,3.58
2022-12-03T10:20:45.528Z,3.61
2022-12-03T10:23:43.747Z,3.59
2022-12-03T10:26:11.653Z,3.64
2022-12-03T10:28:43.211Z,3.75
2022-12-03T10:31:15.020Z,3.74
2022-12-03T10:33:46.074Z,3.83
2022-12-03T10:36:17.109Z,3.99
2022-12-03T10:38:46.110Z,3.96
2022-12-03T10:41:31.737Z,4.00
2022-12-03T10:44:21.760Z,3.87
2022-12-03T10:47:07.429Z,4.27
2022-12-03T10:49:35.823Z,4.16
2022-12-03T10:52:04.223Z,3.92
2022-12-03T10:54:34.606Z,3.98
2022-12-03T10:57:02.469Z,4.25
2022-12-03T10:59:33.671Z,4.45
2022-12-03T11:02:04.421Z,4.37
2022-12-03T11:04:35.880Z,4.40
2022-12-03T11:07:15.616Z,4.50
2022-12-03T11:09:46.343Z,4.54
2022-12-03T11:12:21.116Z,4.78
2022-12-03T11:14:49.395Z,4.81
2022-12-03T11:17:36.135Z,4.86
2022-12-03T11:20:04.700Z,4.80
2022-12-03T11:22:44.126Z,4.75
2022-12-03T11:25:27.126Z,4.62
2022-12-03T11:28:13.123Z,4.76
2022-12-03T11:30:53.574Z,4.96
2022-12-03T11:33:30.653Z,4.89
2022-12-03T11:36:04.656Z,5.04
2022-12-03T11:38:40.732Z,5.05
2022-12-03T11:41:17.127Z,4.94
2022-12-03T11:43:52.178Z,4.80
2022-12-03T11:46:21.751Z,5.05
2022-12-03T11:48:51.679Z,4.99
2022-12-03T11:51:25.543Z,5.01
2022-12-03T11:53:57.121Z,5.23
2022-12-03T11:56:27.317Z,4.76
2022-12-03T11:59:03.782Z,5.16
2022-12-03T12:01:40.279Z,5.32
2022-12-03T12:04:28.308Z,5.26
2022-12-03T12:06:56.245Z,5.23
2022-12-03T12:09:50.183Z,5.32
2022-12-03T12:12:29.320Z,5.41
2022-12-03T12:15:00.764Z,5.30
2022-12-03T12:17:33.943Z,4.91
2022-12-03T12:20:13.760Z,5.19
2022-12-03T12:22:41.747Z,5.00
2022-12-03T12:25:33.967Z,4.97
2022-12-03T12:28:03.135Z,5.22
2022-12-03T12:30:31.058Z,5.21
2022-12-03T12:33:07.693Z,5.30
2022-12-03T12:35:36.815Z,5.39
2022-12-03T12:38:07.671Z,5.50
2022-12-03T12:40:38.381Z,5.45
2022-12-03T12:43:15.375Z,5.41
2022-12-03T12:45:44.958Z,5.37
2022-12-03T12:48:34.597Z,5.33
2022-12-03T12:51:11.942Z,5.35
2022-12-03T12:53:42.976Z,5.47
2022-12-03T12:56:26.110Z,5.20
2022-12-03T12:58:55.078Z,5.20
2022-12-03T13:01:29.715Z,5.05
2022-12-03T13:03:58.781Z,4.93
2022-12-03T13:06:31.916Z,5.08
2022-12-03T13:09:01.241Z,5.31
2022-12-03T13:11:42.345Z,5.20
2022-12-03T13:14:18.620Z,5.30
2022-12-03T13:16:51.652Z,5.30
2022-12-03T13:19:23.605Z,5.45
2022-12-03T13:21:56.494Z,5.28
2022-12-03T13:24:33.218Z,5.21
2022-12-03T13:27:16.375Z,5.05
2022-12-03T13:30:05.417Z,5.45
2022-12-03T13:32:37.914Z,5.16
2022-12-03T13:35:07.476Z,5.17
2022-12-03T13:37:37.390Z,5.24
2022-12-03T13:40:13.309Z,5.27
2022-12-03T13:42:46.533Z,5.30
2022-12-03T13:45:14.614Z,5.23
2022-12-03T13:47:43.911Z,5.17
2022-12-03T13:50:46.400Z,5.26
2022-12-03T13:53:25.319Z,5.08
2022-12-03T13:56:26.429Z,4.97
2022-12-03T13:58:56.162Z,5.01
2022-12-03T14:01:24.130Z,5.19
2022-12-03T14:03:52.577Z,5.08
2022-12-03T14:06:20.715Z,5.17
2022-12-03T14:08:48.777Z,5.05
2022-12-03T14:11:35.219Z,5.03
2022-12-03T14:14:03.389Z,4.81
2022-12-03T14:16:31.514Z,4.86
2022-12-03T14:18:59.422Z,4.89
2022-12-03T14:21:27.368Z,4.84
2022-12-03T14:23:55.200Z,4.87
2022-12-03T14:26:23.080Z,4.84
2022-12-03T14:28:51.171Z,4.80
2022-12-03T14:31:19.060Z,4.79
2022-12-03T14:33:47.884Z,4.77
2022-12-03T14:36:16.014Z,4.79
2022-12-03T14:38:43.958Z,4.68
2022-12-03T14:41:31.922Z,4.64
2022-12-03T14:43:59.898Z,4.65
2022-12-03T14:46:27.882Z,4.53
2022-12-03T14:48:55.896Z,4.53
2022-12-03T14:51:23.825Z,4.53
2022-12-03T14:53:51.681Z,4.42
2022-12-03T14:56:20.091Z,4.35
2022-12-03T14:58:48.102Z,4.29
2022-12-03T15:01:16.186Z,4.18
2022-12-03T15:03:44.048Z,4.27
2022-12-03T15:06:11.927Z,4.24
2022-12-03T15:08:39.825Z,4.34
2022-12-03T15:11:08.019Z,4.36
2022-12-03T15:13:36.031Z,4.13
2022-12-03T15:16:04.020Z,4.15
2022-12-03T15:18:34.884Z,4.14
2022-12-03T15:21:02.737Z,4.14
2022-12-03T15:23:30.645Z,4.18
2022-12-03T15:25:58.622Z,4.02
2022-12-03T15:28:27.433Z,4.14
2022-12-03T15:30:55.375Z,4.12
2022-12-03T15:33:23.306Z,22.82
